AUA55B LOWW-CYUL
Flight info
| Callsign | AUA55B |
|---|---|
| Flight time | N/A |
| Altitude | 34000 |
| Route | MEDIX DCT RENKA L610 STAUB/N0425F240 L610 UPALA/N0475F340 Z744 LEPSA DCT ADKUV DCT NIK L610 KOPUL Q60 OKSAW DCT BIBPE DCT ARPAK DCT FELCA DCT OFSOX DCT SLANY DCT LUNIG DCT TOBOR/M083F360 DCT 53N020W 53N030W 5230N04000W 50N050W DCT ELSIR/N0464F360 N412A MIILS DCT KEBIG ROCKT3 |
| Aircraft | B772/H-SDE1E2E3FGHIJ2J3J4J5M1RWXY/LB1D1 |
Departure
| Time | 2026-05-06 18:45 |
|---|---|
| Airport | Vienna International Airport (LOWW) |
Arrival
| Time | N/A |
|---|---|
| Airport | Montreal / Pierre Elliott Trudeau International Airport (CYUL) |
| Time | Latitude | Longitude | Altitude | Speed | Heading |
|---|---|---|---|---|---|
| 2026-05-06 18:14 | 48.11770 | 16.56194 | 631 ft | 0 kts | 343° |
| 2026-05-06 18:30 | 48.11765 | 16.56197 | 616 ft | 2 kts | 343° |
| 2026-05-06 18:30 | 48.11749 | 16.56204 | 631 ft | 2 kts | 343° |
| 2026-05-06 18:31 | 48.11733 | 16.56211 | 627 ft | 2 kts | 343° |
| 2026-05-06 18:31 | 48.11718 | 16.56218 | 631 ft | 2 kts | 344° |
| 2026-05-06 18:31 | 48.11702 | 16.56225 | 631 ft | 2 kts | 345° |
| 2026-05-06 18:31 | 48.11686 | 16.56230 | 631 ft | 2 kts | 8° |
| 2026-05-06 18:32 | 48.11670 | 16.56223 | 631 ft | 2 kts | 23° |
| 2026-05-06 18:32 | 48.11655 | 16.56212 | 631 ft | 2 kts | 75° |
| 2026-05-06 18:32 | 48.11656 | 16.56188 | 631 ft | 2 kts | 109° |
| 2026-05-06 18:32 | 48.11661 | 16.56170 | 631 ft | 1 kts | 115° |
| 2026-05-06 18:33 | 48.11661 | 16.56168 | 631 ft | 0 kts | 116° |
| 2026-05-06 18:36 | 48.11648 | 16.56210 | 631 ft | 10 kts | 115° |
| 2026-05-06 18:36 | 48.11606 | 16.56337 | 620 ft | 14 kts | 116° |
| 2026-05-06 18:37 | 48.11563 | 16.56471 | 627 ft | 14 kts | 116° |
| 2026-05-06 18:37 | 48.11520 | 16.56604 | 627 ft | 14 kts | 116° |
| 2026-05-06 18:37 | 48.11476 | 16.56737 | 628 ft | 14 kts | 116° |
| 2026-05-06 18:37 | 48.11432 | 16.56871 | 628 ft | 14 kts | 116° |
| 2026-05-06 18:38 | 48.11389 | 16.57004 | 622 ft | 14 kts | 116° |
| 2026-05-06 18:38 | 48.11346 | 16.57138 | 627 ft | 14 kts | 116° |
| 2026-05-06 18:38 | 48.11308 | 16.57253 | 625 ft | 10 kts | 114° |
| 2026-05-06 18:38 | 48.11333 | 16.57341 | 628 ft | 10 kts | 37° |
| 2026-05-06 18:39 | 48.11396 | 16.57392 | 627 ft | 11 kts | 26° |
| 2026-05-06 18:39 | 48.11483 | 16.57450 | 623 ft | 14 kts | 17° |
| 2026-05-06 18:39 | 48.11580 | 16.57442 | 627 ft | 14 kts | 345° |
| 2026-05-06 18:40 | 48.11770 | 16.57361 | 628 ft | 14 kts | 344° |
| 2026-05-06 18:40 | 48.11865 | 16.57321 | 628 ft | 14 kts | 344° |
| 2026-05-06 18:40 | 48.11958 | 16.57293 | 628 ft | 13 kts | 16° |
| 2026-05-06 18:40 | 48.12003 | 16.57401 | 623 ft | 13 kts | 72° |
| 2026-05-06 18:41 | 48.12004 | 16.57533 | 623 ft | 12 kts | 100° |
| 2026-05-06 18:41 | 48.12000 | 16.57563 | 620 ft | 0 kts | 103° |
| 2026-05-06 18:43 | 48.12000 | 16.57565 | 619 ft | 1 kts | 103° |
| 2026-05-06 18:43 | 48.11992 | 16.57613 | 626 ft | 11 kts | 104° |
| 2026-05-06 18:43 | 48.11972 | 16.57730 | 624 ft | 12 kts | 106° |
| 2026-05-06 18:44 | 48.11930 | 16.57829 | 627 ft | 12 kts | 147° |
| 2026-05-06 18:44 | 48.11899 | 16.57849 | 628 ft | 0 kts | 160° |
| 2026-05-06 18:44 | 48.11793 | 16.57898 | 625 ft | 48 kts | 164° |
| 2026-05-06 18:45 | 48.11233 | 16.58133 | 623 ft | 117 kts | 164° |
| 2026-05-06 18:45 | 48.10256 | 16.58544 | 630 ft | 171 kts | 165° |
| 2026-05-06 18:45 | 48.09045 | 16.59051 | 958 ft | 187 kts | 166° |
| 2026-05-06 18:45 | 48.07795 | 16.59559 | 1637 ft | 184 kts | 167° |
| 2026-05-06 18:46 | 48.06552 | 16.60017 | 2237 ft | 187 kts | 179° |
| 2026-05-06 18:46 | 48.05255 | 16.59633 | 2465 ft | 201 kts | 206° |
| 2026-05-06 18:46 | 48.04104 | 16.58314 | 2753 ft | 218 kts | 226° |
| 2026-05-06 18:46 | 48.03184 | 16.56442 | 3239 ft | 227 kts | 234° |
| 2026-05-06 18:47 | 48.02606 | 16.54195 | 3693 ft | 243 kts | 260° |
| 2026-05-06 18:47 | 48.02603 | 16.51632 | 4272 ft | 249 kts | 264° |
| 2026-05-06 18:47 | 48.02592 | 16.49033 | 4958 ft | 250 kts | 264° |
| 2026-05-06 18:47 | 48.02586 | 16.46461 | 5661 ft | 251 kts | 264° |
| 2026-05-06 18:48 | 48.02587 | 16.43834 | 6305 ft | 255 kts | 264° |
| 2026-05-06 18:48 | 48.02591 | 16.41159 | 6881 ft | 259 kts | 265° |
| 2026-05-06 18:48 | 48.02596 | 16.38461 | 7519 ft | 260 kts | 265° |
| 2026-05-06 18:48 | 48.02861 | 16.35764 | 7962 ft | 272 kts | 285° |
| 2026-05-06 18:49 | 48.03610 | 16.33123 | 8517 ft | 277 kts | 289° |
| 2026-05-06 18:49 | 48.04371 | 16.30467 | 9194 ft | 278 kts | 289° |
| 2026-05-06 18:49 | 48.05126 | 16.27797 | 9791 ft | 281 kts | 289° |
| 2026-05-06 18:49 | 48.05889 | 16.25078 | 10283 ft | 289 kts | 289° |
| 2026-05-06 18:50 | 48.06689 | 16.22207 | 10451 ft | 310 kts | 289° |
| 2026-05-06 18:50 | 48.07542 | 16.19131 | 10629 ft | 331 kts | 289° |
| 2026-05-06 18:50 | 48.08444 | 16.15879 | 10786 ft | 353 kts | 290° |
| 2026-05-06 18:50 | 48.09422 | 16.12363 | 11194 ft | 367 kts | 289° |
| 2026-05-06 18:51 | 48.10412 | 16.08792 | 11792 ft | 376 kts | 290° |
| 2026-05-06 18:51 | 48.11407 | 16.05187 | 12567 ft | 381 kts | 289° |
| 2026-05-06 18:51 | 48.12425 | 16.01495 | 13366 ft | 386 kts | 289° |
| 2026-05-06 18:51 | 48.13457 | 15.97749 | 14124 ft | 390 kts | 289° |
| 2026-05-06 18:52 | 48.14492 | 15.93981 | 15028 ft | 390 kts | 288° |
| 2026-05-06 18:52 | 48.15529 | 15.90222 | 15806 ft | 393 kts | 289° |
| 2026-05-06 18:52 | 48.16599 | 15.86417 | 16459 ft | 398 kts | 289° |
| 2026-05-06 18:52 | 48.17672 | 15.82631 | 17195 ft | 402 kts | 289° |
| 2026-05-06 18:53 | 48.18771 | 15.78761 | 17926 ft | 405 kts | 288° |
| 2026-05-06 18:53 | 48.19881 | 15.74846 | 18578 ft | 409 kts | 288° |
| 2026-05-06 18:53 | 48.20994 | 15.70904 | 19211 ft | 413 kts | 288° |
| 2026-05-06 18:53 | 48.22113 | 15.66931 | 19832 ft | 416 kts | 288° |
| 2026-05-06 18:54 | 48.23243 | 15.62911 | 20444 ft | 420 kts | 288° |
| 2026-05-06 18:54 | 48.24383 | 15.58848 | 21134 ft | 422 kts | 288° |
| 2026-05-06 18:54 | 48.25523 | 15.54781 | 21798 ft | 424 kts | 288° |
| 2026-05-06 18:54 | 48.26674 | 15.50666 | 22371 ft | 429 kts | 288° |
| 2026-05-06 18:55 | 48.27832 | 15.46518 | 22933 ft | 433 kts | 288° |
| 2026-05-06 18:55 | 48.28998 | 15.42329 | 23463 ft | 436 kts | 287° |
| 2026-05-06 18:55 | 48.30055 | 15.38061 | 23958 ft | 435 kts | 282° |
| 2026-05-06 18:55 | 48.30842 | 15.33677 | 24480 ft | 435 kts | 278° |
| 2026-05-06 18:56 | 48.31508 | 15.29241 | 25007 ft | 436 kts | 277° |
| 2026-05-06 18:56 | 48.32142 | 15.24779 | 25499 ft | 438 kts | 277° |
| 2026-05-06 18:56 | 48.32786 | 15.20294 | 25981 ft | 440 kts | 277° |
| 2026-05-06 18:56 | 48.33455 | 15.15789 | 26470 ft | 443 kts | 277° |
| 2026-05-06 18:57 | 48.34149 | 15.11257 | 26930 ft | 445 kts | 278° |
| 2026-05-06 18:57 | 48.34857 | 15.06720 | 27388 ft | 447 kts | 278° |
| 2026-05-06 18:57 | 48.35576 | 15.02166 | 27839 ft | 448 kts | 278° |
| 2026-05-06 18:57 | 48.36299 | 14.97591 | 28255 ft | 450 kts | 278° |
| 2026-05-06 18:58 | 48.37027 | 14.92987 | 28641 ft | 453 kts | 278° |
| 2026-05-06 18:58 | 48.37745 | 14.88433 | 29000 ft | 454 kts | 278° |
| 2026-05-06 18:58 | 48.38471 | 14.83807 | 29465 ft | 454 kts | 278° |
| 2026-05-06 18:58 | 48.39196 | 14.79195 | 30012 ft | 450 kts | 277° |
| 2026-05-06 18:59 | 48.39910 | 14.74640 | 30607 ft | 445 kts | 277° |
| 2026-05-06 18:59 | 48.40614 | 14.70120 | 31031 ft | 443 kts | 277° |
| 2026-05-06 18:59 | 48.41312 | 14.65610 | 31377 ft | 443 kts | 277° |
| 2026-05-06 18:59 | 48.42010 | 14.61088 | 31704 ft | 443 kts | 276° |
| 2026-05-06 19:00 | 48.42709 | 14.56552 | 32087 ft | 442 kts | 276° |
| 2026-05-06 19:00 | 48.43401 | 14.52049 | 32480 ft | 441 kts | 276° |
| 2026-05-06 19:00 | 48.44087 | 14.47564 | 32802 ft | 440 kts | 276° |
| 2026-05-06 19:00 | 48.44543 | 14.44577 | 33049 ft | 439 kts | 276° |
| 2026-05-06 19:01 | 48.45456 | 14.38586 | 33517 ft | 438 kts | 276° |
| 2026-05-06 19:01 | 48.46136 | 14.34111 | 33707 ft | 441 kts | 276° |
| 2026-05-06 19:01 | 48.46820 | 14.29596 | 33733 ft | 442 kts | 276° |
| 2026-05-06 19:02 | 48.48180 | 14.20592 | 33720 ft | 438 kts | 275° |
| 2026-05-06 19:02 | 48.49513 | 14.11701 | 33723 ft | 436 kts | 275° |
| 2026-05-06 19:03 | 48.50843 | 14.02785 | 33697 ft | 435 kts | 275° |
| 2026-05-06 19:03 | 48.52162 | 13.93888 | 33740 ft | 435 kts | 275° |
| 2026-05-06 19:04 | 48.53479 | 13.84969 | 33716 ft | 436 kts | 275° |
| 2026-05-06 19:04 | 48.54788 | 13.76030 | 33712 ft | 437 kts | 275° |
| 2026-05-06 19:05 | 48.56098 | 13.67063 | 33711 ft | 437 kts | 275° |
| 2026-05-06 19:05 | 48.57404 | 13.58087 | 33736 ft | 438 kts | 275° |
| 2026-05-06 19:06 | 48.58802 | 13.49107 | 33726 ft | 443 kts | 281° |
| 2026-05-06 19:06 | 48.60911 | 13.40373 | 33739 ft | 446 kts | 283° |
| 2026-05-06 19:07 | 48.63057 | 13.31577 | 33741 ft | 446 kts | 283° |
| 2026-05-06 19:07 | 48.65176 | 13.22755 | 33757 ft | 446 kts | 283° |
| 2026-05-06 19:08 | 48.67287 | 13.13933 | 33795 ft | 446 kts | 283° |
| 2026-05-06 19:08 | 48.69395 | 13.05076 | 33782 ft | 448 kts | 283° |
| 2026-05-06 19:09 | 48.71499 | 12.96146 | 33764 ft | 450 kts | 283° |
| 2026-05-06 19:09 | 48.73586 | 12.87249 | 33764 ft | 452 kts | 283° |
| 2026-05-06 19:10 | 48.75695 | 12.78249 | 33783 ft | 453 kts | 283° |
| 2026-05-06 19:10 | 48.77800 | 12.69230 | 33781 ft | 453 kts | 283° |
| 2026-05-06 19:11 | 48.79891 | 12.60210 | 33792 ft | 453 kts | 283° |
| 2026-05-06 19:11 | 48.81970 | 12.51178 | 33797 ft | 452 kts | 283° |
| 2026-05-06 19:12 | 48.83687 | 12.43699 | 33815 ft | 451 kts | 283° |
| 2026-05-06 19:12 | 48.86084 | 12.33234 | 33847 ft | 451 kts | 283° |
| 2026-05-06 19:13 | 48.88144 | 12.24215 | 33814 ft | 453 kts | 283° |
| 2026-05-06 19:13 | 48.90285 | 12.16884 | 33824 ft | 459 kts | 290° |
| 2026-05-06 19:14 | 48.93209 | 12.08237 | 33835 ft | 460 kts | 290° |
| 2026-05-06 19:14 | 48.96123 | 11.99557 | 33835 ft | 460 kts | 290° |
| 2026-05-06 19:15 | 48.99010 | 11.90850 | 33847 ft | 461 kts | 290° |
| 2026-05-06 19:15 | 49.01891 | 11.82106 | 33820 ft | 462 kts | 290° |
| 2026-05-06 19:16 | 49.04773 | 11.73335 | 33842 ft | 463 kts | 289° |
| 2026-05-06 19:16 | 49.07640 | 11.64582 | 33839 ft | 464 kts | 289° |
| 2026-05-06 19:17 | 49.10523 | 11.55757 | 33816 ft | 465 kts | 289° |
| 2026-05-06 19:17 | 49.13400 | 11.46908 | 33823 ft | 467 kts | 290° |
| 2026-05-06 19:18 | 49.16283 | 11.37988 | 33827 ft | 468 kts | 290° |
| 2026-05-06 19:18 | 49.19165 | 11.29046 | 33825 ft | 470 kts | 290° |
| 2026-05-06 19:19 | 49.21989 | 11.20091 | 33824 ft | 468 kts | 287° |
| 2026-05-06 19:19 | 49.24513 | 11.10919 | 33827 ft | 467 kts | 286° |
| 2026-05-06 19:20 | 49.26984 | 11.01722 | 33819 ft | 468 kts | 286° |
| 2026-05-06 19:20 | 49.29467 | 10.92578 | 33840 ft | 468 kts | 287° |
| 2026-05-06 19:21 | 49.31975 | 10.83352 | 33847 ft | 469 kts | 287° |
| 2026-05-06 19:21 | 49.34747 | 10.74265 | 33833 ft | 475 kts | 294° |
| 2026-05-06 19:22 | 49.38505 | 10.65904 | 33853 ft | 480 kts | 301° |
| 2026-05-06 19:22 | 49.42481 | 10.57623 | 33837 ft | 481 kts | 301° |
| 2026-05-06 19:23 | 49.46428 | 10.49314 | 33816 ft | 481 kts | 300° |
| 2026-05-06 19:23 | 49.50345 | 10.40964 | 33816 ft | 481 kts | 300° |
| 2026-05-06 19:24 | 49.54248 | 10.32595 | 33833 ft | 481 kts | 300° |
| 2026-05-06 19:24 | 49.58152 | 10.24210 | 33815 ft | 481 kts | 300° |
| 2026-05-06 19:25 | 49.62051 | 10.15812 | 33804 ft | 482 kts | 300° |
| 2026-05-06 19:25 | 49.65945 | 10.07399 | 33816 ft | 482 kts | 300° |
| 2026-05-06 19:26 | 49.69811 | 9.99017 | 33819 ft | 482 kts | 300° |
| 2026-05-06 19:26 | 49.73242 | 9.90208 | 33808 ft | 475 kts | 289° |
| 2026-05-06 19:27 | 49.75929 | 9.80872 | 33809 ft | 476 kts | 289° |
| 2026-05-06 19:27 | 49.78642 | 9.71520 | 33806 ft | 477 kts | 289° |
| 2026-05-06 19:28 | 49.81400 | 9.62156 | 33819 ft | 478 kts | 289° |
| 2026-05-06 19:28 | 49.84068 | 9.52741 | 33826 ft | 477 kts | 287° |
| 2026-05-06 19:29 | 49.86515 | 9.43200 | 33826 ft | 476 kts | 286° |
| 2026-05-06 19:29 | 49.88927 | 9.33700 | 33827 ft | 477 kts | 287° |
| 2026-05-06 19:30 | 49.91384 | 9.24130 | 33817 ft | 477 kts | 287° |
| 2026-05-06 19:30 | 49.93859 | 9.14518 | 33821 ft | 478 kts | 287° |
| 2026-05-06 19:31 | 49.96296 | 9.05033 | 33837 ft | 477 kts | 287° |
| 2026-05-06 19:31 | 49.99963 | 8.90678 | 33843 ft | 476 kts | 287° |
| 2026-05-06 19:32 | 50.02391 | 8.81120 | 33847 ft | 475 kts | 287° |
| 2026-05-06 19:32 | 50.04794 | 8.71614 | 33855 ft | 474 kts | 287° |
| 2026-05-06 19:33 | 50.07205 | 8.62039 | 33857 ft | 474 kts | 287° |
| 2026-05-06 19:33 | 50.09603 | 8.52470 | 33860 ft | 474 kts | 287° |
| 2026-05-06 19:34 | 50.11999 | 8.42874 | 33845 ft | 474 kts | 287° |
| 2026-05-06 19:34 | 50.14381 | 8.33295 | 33837 ft | 474 kts | 287° |
| 2026-05-06 19:35 | 50.16741 | 8.23758 | 33855 ft | 473 kts | 288° |
| 2026-05-06 19:35 | 50.19105 | 8.14158 | 33847 ft | 473 kts | 288° |
| 2026-05-06 19:36 | 50.21460 | 8.04563 | 33844 ft | 474 kts | 288° |
| 2026-05-06 19:36 | 50.23809 | 7.94953 | 33845 ft | 473 kts | 287° |
| 2026-05-06 19:37 | 50.26137 | 7.85375 | 33852 ft | 473 kts | 287° |
| 2026-05-06 19:37 | 50.28090 | 7.77309 | 33858 ft | 473 kts | 288° |
| 2026-05-06 19:38 | 50.30802 | 7.66078 | 33858 ft | 473 kts | 288° |
| 2026-05-06 19:38 | 50.33116 | 7.56430 | 33860 ft | 474 kts | 288° |
| 2026-05-06 19:39 | 50.35412 | 7.46828 | 33862 ft | 473 kts | 288° |
| 2026-05-06 19:39 | 50.37715 | 7.37160 | 33875 ft | 473 kts | 288° |
| 2026-05-06 19:40 | 50.40003 | 7.27494 | 33861 ft | 472 kts | 288° |
| 2026-05-06 19:40 | 50.42264 | 7.17914 | 33863 ft | 471 kts | 288° |
| 2026-05-06 19:41 | 50.44527 | 7.08274 | 33872 ft | 470 kts | 288° |
| 2026-05-06 19:41 | 50.46780 | 6.98638 | 33871 ft | 469 kts | 288° |
| 2026-05-06 19:42 | 50.49022 | 6.89024 | 33882 ft | 469 kts | 288° |
| 2026-05-06 19:42 | 50.51268 | 6.79390 | 33883 ft | 469 kts | 289° |
| 2026-05-06 19:43 | 50.53718 | 6.69947 | 33883 ft | 469 kts | 291° |
| 2026-05-06 19:43 | 50.56263 | 6.60485 | 33881 ft | 469 kts | 291° |
| 2026-05-06 19:44 | 50.58780 | 6.51007 | 33881 ft | 469 kts | 291° |
| 2026-05-06 19:44 | 50.61247 | 6.41574 | 33895 ft | 469 kts | 291° |
| 2026-05-06 19:45 | 50.63713 | 6.32066 | 33881 ft | 469 kts | 290° |
| 2026-05-06 19:45 | 50.66173 | 6.22540 | 33890 ft | 469 kts | 290° |
| 2026-05-06 19:46 | 50.68624 | 6.13012 | 33897 ft | 469 kts | 290° |
| 2026-05-06 19:46 | 50.71068 | 6.03473 | 33912 ft | 469 kts | 290° |
| 2026-05-06 19:47 | 50.73506 | 5.93920 | 33918 ft | 468 kts | 290° |
| 2026-05-06 19:47 | 50.75935 | 5.84368 | 33899 ft | 468 kts | 290° |
| 2026-05-06 19:48 | 50.78351 | 5.74822 | 33913 ft | 467 kts | 290° |
| 2026-05-06 19:48 | 50.80740 | 5.65341 | 33919 ft | 466 kts | 290° |
| 2026-05-06 19:49 | 50.83131 | 5.55811 | 33922 ft | 466 kts | 290° |
| 2026-05-06 19:49 | 50.85514 | 5.46272 | 33926 ft | 465 kts | 290° |
| 2026-05-06 19:50 | 50.87683 | 5.36649 | 33932 ft | 464 kts | 286° |
| 2026-05-06 19:50 | 50.89520 | 5.26922 | 33943 ft | 463 kts | 285° |
| 2026-05-06 19:51 | 50.91345 | 5.17132 | 33929 ft | 463 kts | 285° |
| 2026-05-06 19:51 | 50.93207 | 5.07354 | 33932 ft | 463 kts | 286° |
| 2026-05-06 19:52 | 50.95088 | 4.97565 | 33934 ft | 463 kts | 286° |
| 2026-05-06 19:52 | 50.96963 | 4.87783 | 33959 ft | 463 kts | 286° |
| 2026-05-06 19:53 | 50.98812 | 4.78070 | 33946 ft | 463 kts | 285° |
| 2026-05-06 19:53 | 51.00674 | 4.68232 | 33939 ft | 463 kts | 286° |
| 2026-05-06 19:54 | 51.02508 | 4.58494 | 33942 ft | 463 kts | 286° |
| 2026-05-06 19:54 | 51.04343 | 4.48683 | 33942 ft | 463 kts | 286° |
| 2026-05-06 19:55 | 51.06169 | 4.38884 | 33964 ft | 463 kts | 286° |
| 2026-05-06 19:55 | 51.07990 | 4.29071 | 33963 ft | 463 kts | 286° |
| 2026-05-06 19:56 | 51.09800 | 4.19254 | 33961 ft | 463 kts | 285° |
| 2026-05-06 19:56 | 51.11603 | 4.09410 | 33956 ft | 463 kts | 285° |
| 2026-05-06 19:57 | 51.13396 | 3.99581 | 33954 ft | 463 kts | 285° |
| 2026-05-06 19:57 | 51.15173 | 3.89779 | 33948 ft | 463 kts | 285° |
| 2026-05-06 19:58 | 51.16953 | 3.79914 | 33943 ft | 463 kts | 285° |
| 2026-05-06 19:58 | 51.18424 | 3.71729 | 33940 ft | 463 kts | 285° |
| 2026-05-06 19:59 | 51.20186 | 3.61861 | 33946 ft | 462 kts | 285° |
| 2026-05-06 19:59 | 51.21938 | 3.51995 | 33948 ft | 462 kts | 285° |
| 2026-05-06 20:00 | 51.23679 | 3.42138 | 33969 ft | 461 kts | 285° |
| 2026-05-06 20:00 | 51.25413 | 3.32284 | 33974 ft | 461 kts | 285° |
| 2026-05-06 20:01 | 51.27136 | 3.22422 | 33976 ft | 461 kts | 285° |
| 2026-05-06 20:01 | 51.28845 | 3.12593 | 33972 ft | 461 kts | 285° |
| 2026-05-06 20:02 | 51.30552 | 3.02712 | 33969 ft | 459 kts | 285° |
| 2026-05-06 20:02 | 51.32240 | 2.92902 | 33961 ft | 456 kts | 285° |
| 2026-05-06 20:03 | 51.33922 | 2.83077 | 33970 ft | 460 kts | 285° |
| 2026-05-06 20:03 | 51.35546 | 2.73230 | 33970 ft | 460 kts | 282° |
| 2026-05-06 20:04 | 51.36779 | 2.63270 | 33975 ft | 455 kts | 281° |
| 2026-05-06 20:04 | 51.37956 | 2.53284 | 33994 ft | 457 kts | 281° |
| 2026-05-06 20:05 | 51.39160 | 2.43242 | 34003 ft | 459 kts | 281° |
| 2026-05-06 20:05 | 51.40347 | 2.33233 | 33981 ft | 456 kts | 279° |
| 2026-05-06 20:06 | 51.41400 | 2.22339 | 33988 ft | 454 kts | 278° |
| 2026-05-06 20:06 | 51.42320 | 2.12334 | 33989 ft | 453 kts | 278° |
| 2026-05-06 20:07 | 51.43257 | 2.02349 | 34007 ft | 454 kts | 278° |
| 2026-05-06 20:07 | 51.44210 | 1.92308 | 34005 ft | 456 kts | 278° |
| 2026-05-06 20:08 | 51.45160 | 1.82234 | 33999 ft | 458 kts | 278° |
| 2026-05-06 20:08 | 51.46104 | 1.72113 | 33995 ft | 459 kts | 278° |
| 2026-05-06 20:09 | 51.47042 | 1.61968 | 33994 ft | 460 kts | 278° |
| 2026-05-06 20:09 | 51.47963 | 1.51880 | 33999 ft | 460 kts | 278° |
| 2026-05-06 20:10 | 51.48883 | 1.41738 | 34012 ft | 459 kts | 278° |
| 2026-05-06 20:10 | 51.49790 | 1.31631 | 33994 ft | 457 kts | 277° |
| 2026-05-06 20:11 | 51.50684 | 1.21546 | 33996 ft | 456 kts | 277° |
| 2026-05-06 20:11 | 51.51571 | 1.11488 | 33993 ft | 454 kts | 277° |
| 2026-05-06 20:12 | 51.52445 | 1.01437 | 33994 ft | 454 kts | 277° |
| 2026-05-06 20:12 | 51.53312 | 0.91398 | 34016 ft | 453 kts | 277° |
| 2026-05-06 20:13 | 51.54167 | 0.81360 | 34020 ft | 453 kts | 277° |
| 2026-05-06 20:13 | 51.55009 | 0.71384 | 34017 ft | 453 kts | 277° |
| 2026-05-06 20:14 | 51.55846 | 0.61349 | 34019 ft | 453 kts | 277° |
| 2026-05-06 20:14 | 51.56676 | 0.51309 | 34020 ft | 453 kts | 277° |
| 2026-05-06 20:15 | 51.57497 | 0.41272 | 34019 ft | 453 kts | 276° |
| 2026-05-06 20:15 | 51.58310 | 0.31242 | 34014 ft | 453 kts | 276° |
| 2026-05-06 20:16 | 51.59110 | 0.21233 | 34019 ft | 452 kts | 276° |
| 2026-05-06 20:16 | 51.59895 | 0.11322 | 34020 ft | 452 kts | 276° |
| 2026-05-06 20:17 | 51.60683 | 0.01290 | 34020 ft | 452 kts | 276° |
| 2026-05-06 20:17 | 51.61461 | -0.08738 | 34039 ft | 451 kts | 276° |
| 2026-05-06 20:18 | 51.62065 | -0.17112 | 34048 ft | 451 kts | 275° |
| 2026-05-06 20:18 | 51.62660 | -0.27065 | 34050 ft | 451 kts | 275° |
| 2026-05-06 20:19 | 51.63243 | -0.37110 | 34024 ft | 451 kts | 275° |
| 2026-05-06 20:19 | 51.63834 | -0.47180 | 34021 ft | 451 kts | 275° |
| 2026-05-06 20:20 | 51.64424 | -0.57226 | 34022 ft | 451 kts | 275° |
| 2026-05-06 20:20 | 51.65007 | -0.67310 | 34018 ft | 451 kts | 275° |
| 2026-05-06 20:21 | 51.65583 | -0.77374 | 34019 ft | 452 kts | 274° |
| 2026-05-06 20:21 | 51.66143 | -0.87381 | 34013 ft | 452 kts | 274° |
| 2026-05-06 20:22 | 51.66696 | -0.97404 | 34026 ft | 452 kts | 274° |
| 2026-05-06 20:22 | 51.67245 | -1.07492 | 34021 ft | 452 kts | 274° |
| 2026-05-06 20:23 | 51.67787 | -1.17579 | 34021 ft | 452 kts | 274° |
| 2026-05-06 20:23 | 51.68323 | -1.27712 | 34020 ft | 452 kts | 274° |
| 2026-05-06 20:24 | 51.68847 | -1.37819 | 34021 ft | 453 kts | 274° |
| 2026-05-06 20:24 | 51.69362 | -1.47871 | 34021 ft | 453 kts | 274° |
| 2026-05-06 20:25 | 51.69873 | -1.57987 | 34022 ft | 453 kts | 274° |
| 2026-05-06 20:25 | 51.70372 | -1.68111 | 34018 ft | 453 kts | 274° |
| 2026-05-06 20:26 | 51.71060 | -1.78210 | 34021 ft | 453 kts | 277° |
| 2026-05-06 20:26 | 51.71823 | -1.88322 | 34021 ft | 453 kts | 276° |
| 2026-05-06 20:27 | 51.72536 | -1.98424 | 34021 ft | 453 kts | 276° |
| 2026-05-06 20:27 | 51.73236 | -2.08489 | 34023 ft | 453 kts | 276° |
| 2026-05-06 20:28 | 51.73936 | -2.18603 | 34021 ft | 454 kts | 276° |
| 2026-05-06 20:28 | 51.74633 | -2.28758 | 34017 ft | 454 kts | 276° |
| 2026-05-06 20:29 | 51.75317 | -2.38872 | 34017 ft | 454 kts | 276° |
| 2026-05-06 20:29 | 51.75994 | -2.49011 | 34013 ft | 454 kts | 276° |
| 2026-05-06 20:30 | 51.76990 | -2.64220 | 34009 ft | 454 kts | 276° |
| 2026-05-06 20:31 | 51.77641 | -2.74314 | 34005 ft | 455 kts | 276° |
| 2026-05-06 20:31 | 51.78292 | -2.84484 | 34079 ft | 457 kts | 276° |
| 2026-05-06 20:32 | 51.78938 | -2.94747 | 34071 ft | 460 kts | 276° |
| 2026-05-06 20:32 | 51.79576 | -3.05050 | 34079 ft | 462 kts | 276° |
| 2026-05-06 20:33 | 51.80212 | -3.15431 | 34068 ft | 464 kts | 276° |
| 2026-05-06 20:33 | 51.80839 | -3.25773 | 34041 ft | 465 kts | 276° |
| 2026-05-06 20:34 | 51.81454 | -3.36182 | 34026 ft | 465 kts | 276° |
| 2026-05-06 20:34 | 51.82069 | -3.46586 | 33999 ft | 465 kts | 276° |
| 2026-05-06 20:35 | 51.82829 | -3.56953 | 33997 ft | 464 kts | 282° |
| 2026-05-06 20:35 | 51.84160 | -3.67154 | 34006 ft | 464 kts | 283° |
| 2026-05-06 20:36 | 51.85511 | -3.77363 | 34006 ft | 464 kts | 283° |
| 2026-05-06 20:36 | 51.86837 | -3.87593 | 34010 ft | 465 kts | 282° |
| 2026-05-06 20:37 | 51.88136 | -3.97780 | 33998 ft | 466 kts | 283° |
| 2026-05-06 20:37 | 51.89433 | -4.08056 | 34008 ft | 466 kts | 282° |
| 2026-05-06 20:38 | 51.90727 | -4.18372 | 34010 ft | 467 kts | 282° |
| 2026-05-06 20:38 | 51.92009 | -4.28697 | 34011 ft | 468 kts | 282° |
| 2026-05-06 20:39 | 51.93284 | -4.39039 | 34002 ft | 468 kts | 282° |
| 2026-05-06 20:39 | 51.94548 | -4.49350 | 34005 ft | 469 kts | 282° |
| 2026-05-06 20:40 | 51.95820 | -4.59797 | 34003 ft | 470 kts | 283° |
| 2026-05-06 20:40 | 51.97070 | -4.70156 | 34022 ft | 472 kts | 283° |
| 2026-05-06 20:41 | 51.98325 | -4.80626 | 34004 ft | 473 kts | 283° |
| 2026-05-06 20:41 | 51.99575 | -4.91139 | 33997 ft | 474 kts | 283° |
| 2026-05-06 20:42 | 52.00815 | -5.01663 | 34011 ft | 475 kts | 283° |
| 2026-05-06 20:42 | 52.02052 | -5.12221 | 34007 ft | 476 kts | 283° |
| 2026-05-06 20:43 | 52.03412 | -5.22428 | 33997 ft | 474 kts | 289° |
| 2026-05-06 20:43 | 52.05464 | -5.32428 | 34015 ft | 474 kts | 291° |
| 2026-05-06 20:44 | 52.07553 | -5.42511 | 34018 ft | 474 kts | 290° |
| 2026-05-06 20:44 | 52.09618 | -5.52707 | 34010 ft | 473 kts | 290° |
| 2026-05-06 20:45 | 52.11655 | -5.62883 | 33997 ft | 473 kts | 290° |
| 2026-05-06 20:45 | 52.13691 | -5.73079 | 34002 ft | 473 kts | 290° |
| 2026-05-06 20:46 | 52.15701 | -5.83293 | 33996 ft | 474 kts | 289° |
| 2026-05-06 20:46 | 52.17025 | -5.93781 | 34000 ft | 477 kts | 282° |
| 2026-05-06 20:47 | 52.18111 | -6.04483 | 34002 ft | 480 kts | 282° |
| 2026-05-06 20:47 | 52.19217 | -6.15248 | 34005 ft | 481 kts | 282° |
| 2026-05-06 20:48 | 52.20341 | -6.26024 | 33998 ft | 483 kts | 282° |
| 2026-05-06 20:48 | 52.21469 | -6.36820 | 33991 ft | 483 kts | 282° |
| 2026-05-06 20:49 | 52.22590 | -6.47624 | 33987 ft | 483 kts | 282° |
| 2026-05-06 20:49 | 52.23701 | -6.58435 | 33997 ft | 483 kts | 282° |
| 2026-05-06 20:50 | 52.24794 | -6.69196 | 34005 ft | 483 kts | 282° |
| 2026-05-06 20:50 | 52.25883 | -6.80028 | 33992 ft | 484 kts | 282° |
| 2026-05-06 20:51 | 52.26963 | -6.90895 | 33992 ft | 484 kts | 282° |
| 2026-05-06 20:51 | 52.28033 | -7.01731 | 33983 ft | 484 kts | 281° |
| 2026-05-06 20:52 | 52.29092 | -7.12582 | 33995 ft | 484 kts | 281° |
| 2026-05-06 20:52 | 52.30144 | -7.23461 | 33990 ft | 484 kts | 281° |
| 2026-05-06 20:53 | 52.31183 | -7.34321 | 33997 ft | 483 kts | 281° |
| 2026-05-06 20:53 | 52.32211 | -7.45168 | 33988 ft | 482 kts | 281° |
| 2026-05-06 20:54 | 52.33226 | -7.55946 | 33993 ft | 481 kts | 281° |
| 2026-05-06 20:54 | 52.34233 | -7.66786 | 33989 ft | 481 kts | 281° |
| 2026-05-06 20:55 | 52.35223 | -7.77551 | 33990 ft | 481 kts | 281° |
| 2026-05-06 20:55 | 52.36207 | -7.88364 | 33994 ft | 480 kts | 281° |
| 2026-05-06 20:56 | 52.37182 | -7.99180 | 33987 ft | 481 kts | 280° |
| 2026-05-06 20:56 | 52.38148 | -8.10020 | 33999 ft | 481 kts | 280° |
| 2026-05-06 20:57 | 52.39101 | -8.20808 | 33995 ft | 482 kts | 280° |
| 2026-05-06 20:57 | 52.39937 | -8.31710 | 33991 ft | 484 kts | 277° |
| 2026-05-06 20:58 | 52.40407 | -8.42722 | 33994 ft | 484 kts | 275° |
| 2026-05-06 20:58 | 52.40822 | -8.53761 | 33991 ft | 484 kts | 275° |
| 2026-05-06 20:59 | 52.41243 | -8.64696 | 33992 ft | 484 kts | 275° |
| 2026-05-06 20:59 | 52.41681 | -8.75709 | 33994 ft | 484 kts | 275° |
| 2026-05-06 21:00 | 52.42117 | -8.86743 | 33990 ft | 484 kts | 275° |
| 2026-05-06 21:00 | 52.42537 | -8.97674 | 33993 ft | 483 kts | 275° |
| 2026-05-06 21:01 | 52.42949 | -9.08668 | 33999 ft | 482 kts | 275° |
| 2026-05-06 21:01 | 52.43351 | -9.19622 | 33994 ft | 480 kts | 275° |
| 2026-05-06 21:02 | 52.43739 | -9.30542 | 33995 ft | 479 kts | 275° |
| 2026-05-06 21:02 | 52.44116 | -9.41447 | 33997 ft | 478 kts | 275° |
| 2026-05-06 21:03 | 52.44480 | -9.52257 | 33990 ft | 478 kts | 274° |
| 2026-05-06 21:03 | 52.44836 | -9.63143 | 33992 ft | 478 kts | 274° |
| 2026-05-06 21:04 | 52.45183 | -9.74053 | 33994 ft | 479 kts | 274° |
| 2026-05-06 21:04 | 52.45461 | -9.83142 | 33991 ft | 480 kts | 274° |
| 2026-05-06 21:05 | 52.45841 | -9.95868 | 33993 ft | 480 kts | 274° |
| 2026-05-06 21:05 | 52.46109 | -10.05044 | 33984 ft | 481 kts | 274° |
| 2026-05-06 21:06 | 52.46420 | -10.16015 | 34044 ft | 484 kts | 274° |
| 2026-05-06 21:06 | 52.46572 | -10.21463 | 34292 ft | 484 kts | 274° |
| 2026-05-06 21:06 | 52.46723 | -10.26969 | 34644 ft | 482 kts | 274° |
| 2026-05-06 21:06 | 52.46868 | -10.32453 | 35011 ft | 479 kts | 273° |
| 2026-05-06 21:07 | 52.47009 | -10.37896 | 35377 ft | 477 kts | 273° |
| 2026-05-06 21:07 | 52.47147 | -10.43316 | 35697 ft | 475 kts | 273° |
| 2026-05-06 21:07 | 52.47282 | -10.48727 | 35920 ft | 475 kts | 273° |
| 2026-05-06 21:08 | 52.47549 | -10.59628 | 35989 ft | 477 kts | 273° |
| 2026-05-06 21:08 | 52.47805 | -10.70427 | 35987 ft | 474 kts | 273° |
| 2026-05-06 21:09 | 52.48050 | -10.81220 | 35990 ft | 472 kts | 273° |
| 2026-05-06 21:09 | 52.48285 | -10.91974 | 35993 ft | 471 kts | 272° |
| 2026-05-06 21:10 | 52.48508 | -11.02636 | 35990 ft | 471 kts | 272° |
| 2026-05-06 21:10 | 52.48724 | -11.13390 | 36009 ft | 471 kts | 272° |
| 2026-05-06 21:11 | 52.48934 | -11.24143 | 35987 ft | 472 kts | 272° |
| 2026-05-06 21:11 | 52.49131 | -11.34910 | 35992 ft | 472 kts | 272° |
| 2026-05-06 21:12 | 52.49316 | -11.45681 | 35993 ft | 472 kts | 272° |
| 2026-05-06 21:12 | 52.49491 | -11.56382 | 35985 ft | 472 kts | 272° |
| 2026-05-06 21:13 | 52.49655 | -11.67138 | 35987 ft | 471 kts | 272° |
| 2026-05-06 21:13 | 52.49810 | -11.77879 | 35987 ft | 471 kts | 272° |
| 2026-05-06 21:14 | 52.49958 | -11.88639 | 35984 ft | 471 kts | 272° |
| 2026-05-06 21:14 | 52.50096 | -11.99395 | 35984 ft | 471 kts | 272° |
| 2026-05-06 21:15 | 52.50223 | -12.10135 | 35997 ft | 470 kts | 271° |
| 2026-05-06 21:15 | 52.50340 | -12.20883 | 35983 ft | 470 kts | 271° |
| 2026-05-06 21:16 | 52.50447 | -12.31555 | 35983 ft | 470 kts | 271° |
| 2026-05-06 21:16 | 52.50546 | -12.42295 | 35976 ft | 470 kts | 271° |
| 2026-05-06 21:17 | 52.50635 | -12.53023 | 35993 ft | 470 kts | 271° |
| 2026-05-06 21:17 | 52.50710 | -12.63762 | 35986 ft | 470 kts | 271° |
| 2026-05-06 21:18 | 52.50780 | -12.74487 | 35973 ft | 470 kts | 271° |
| 2026-05-06 21:18 | 52.50838 | -12.85213 | 35974 ft | 470 kts | 271° |
| 2026-05-06 21:19 | 52.50888 | -12.95868 | 35979 ft | 470 kts | 270° |
| 2026-05-06 21:19 | 52.50928 | -13.06609 | 35972 ft | 470 kts | 270° |
| 2026-05-06 21:20 | 52.50962 | -13.17350 | 35973 ft | 470 kts | 270° |
| 2026-05-06 21:20 | 52.50983 | -13.28089 | 35992 ft | 469 kts | 270° |
| 2026-05-06 21:21 | 52.50993 | -13.38724 | 35973 ft | 467 kts | 270° |
| 2026-05-06 21:21 | 52.50992 | -13.49385 | 35970 ft | 466 kts | 270° |
| 2026-05-06 21:22 | 52.50984 | -13.60025 | 35971 ft | 464 kts | 269° |
| 2026-05-06 21:22 | 52.50963 | -13.70537 | 35972 ft | 463 kts | 269° |
| 2026-05-06 21:23 | 52.50935 | -13.81091 | 35970 ft | 462 kts | 269° |
| 2026-05-06 21:23 | 52.50899 | -13.91649 | 35988 ft | 463 kts | 269° |
| 2026-05-06 21:24 | 52.50854 | -14.02238 | 35967 ft | 464 kts | 269° |
| 2026-05-06 21:24 | 52.50801 | -14.12841 | 35981 ft | 465 kts | 268° |
| 2026-05-06 21:25 | 52.50736 | -14.23490 | 35967 ft | 466 kts | 268° |
| 2026-05-06 21:25 | 52.50661 | -14.34083 | 35980 ft | 466 kts | 268° |
| 2026-05-06 21:26 | 52.50580 | -14.44740 | 35967 ft | 466 kts | 268° |
| 2026-05-06 21:26 | 52.50487 | -14.55382 | 35980 ft | 466 kts | 268° |
| 2026-05-06 21:27 | 52.50384 | -14.66012 | 35969 ft | 466 kts | 268° |
| 2026-05-06 21:27 | 52.50270 | -14.76647 | 35973 ft | 465 kts | 268° |
| 2026-05-06 21:28 | 52.50153 | -14.87284 | 35970 ft | 465 kts | 268° |
| 2026-05-06 21:28 | 52.50079 | -14.97832 | 35960 ft | 465 kts | 271° |
| 2026-05-06 21:29 | 52.50916 | -15.08353 | 35989 ft | 466 kts | 280° |
| 2026-05-06 21:29 | 52.52215 | -15.18800 | 35960 ft | 466 kts | 279° |
| 2026-05-06 21:30 | 52.53502 | -15.29231 | 35961 ft | 466 kts | 279° |
| 2026-05-06 21:30 | 52.54755 | -15.39615 | 35967 ft | 466 kts | 279° |
| 2026-05-06 21:31 | 52.55992 | -15.50055 | 35966 ft | 466 kts | 279° |
| 2026-05-06 21:31 | 52.57215 | -15.60517 | 35962 ft | 466 kts | 279° |
| 2026-05-06 21:32 | 52.58432 | -15.70983 | 35962 ft | 466 kts | 279° |
| 2026-05-06 21:32 | 52.60245 | -15.86717 | 35962 ft | 466 kts | 279° |
| 2026-05-06 21:33 | 52.61441 | -15.97198 | 35962 ft | 466 kts | 278° |
| 2026-05-06 21:33 | 52.62628 | -16.07697 | 35973 ft | 466 kts | 278° |
| 2026-05-06 21:34 | 52.63798 | -16.18122 | 35974 ft | 466 kts | 278° |
| 2026-05-06 21:34 | 52.64966 | -16.28613 | 35965 ft | 465 kts | 278° |
| 2026-05-06 21:35 | 52.66124 | -16.39089 | 35963 ft | 464 kts | 278° |
| 2026-05-06 21:35 | 52.67270 | -16.49556 | 35964 ft | 463 kts | 278° |
| 2026-05-06 21:36 | 52.68401 | -16.59993 | 35954 ft | 462 kts | 277° |
| 2026-05-06 21:36 | 52.69520 | -16.70416 | 35959 ft | 461 kts | 277° |
| 2026-05-06 21:37 | 52.70631 | -16.80845 | 35965 ft | 461 kts | 277° |
| 2026-05-06 21:37 | 52.71732 | -16.91267 | 35959 ft | 461 kts | 277° |
| 2026-05-06 21:38 | 52.72818 | -17.01641 | 35956 ft | 462 kts | 277° |
| 2026-05-06 21:38 | 52.73901 | -17.12085 | 35956 ft | 462 kts | 277° |
| 2026-05-06 21:39 | 52.74975 | -17.22553 | 35975 ft | 462 kts | 276° |
| 2026-05-06 21:39 | 52.76043 | -17.33032 | 35962 ft | 462 kts | 276° |
| 2026-05-06 21:40 | 52.77099 | -17.43508 | 35952 ft | 462 kts | 276° |
| 2026-05-06 21:40 | 52.78146 | -17.53985 | 35954 ft | 462 kts | 276° |
| 2026-05-06 21:41 | 52.79186 | -17.64476 | 35961 ft | 462 kts | 276° |
| 2026-05-06 21:41 | 52.80216 | -17.74957 | 35964 ft | 462 kts | 276° |
| 2026-05-06 21:42 | 52.81232 | -17.85405 | 35963 ft | 462 kts | 276° |
| 2026-05-06 21:42 | 52.82244 | -17.95902 | 35973 ft | 462 kts | 276° |
| 2026-05-06 21:43 | 52.83245 | -18.06396 | 35961 ft | 462 kts | 275° |
| 2026-05-06 21:43 | 52.84232 | -18.16847 | 35962 ft | 462 kts | 275° |
| 2026-05-06 21:44 | 52.85218 | -18.27361 | 35967 ft | 462 kts | 275° |
| 2026-05-06 21:44 | 52.86191 | -18.37866 | 35963 ft | 462 kts | 275° |
| 2026-05-06 21:45 | 52.87149 | -18.48308 | 35976 ft | 461 kts | 275° |
| 2026-05-06 21:45 | 52.88104 | -18.58821 | 35967 ft | 461 kts | 275° |
| 2026-05-06 21:46 | 52.89046 | -18.69322 | 35961 ft | 461 kts | 275° |
| 2026-05-06 21:46 | 52.89978 | -18.79821 | 35964 ft | 461 kts | 275° |
| 2026-05-06 21:47 | 52.90904 | -18.90320 | 35964 ft | 461 kts | 275° |
| 2026-05-06 21:47 | 52.91820 | -19.00822 | 35965 ft | 460 kts | 275° |
| 2026-05-06 21:48 | 52.92726 | -19.11328 | 35972 ft | 461 kts | 275° |
| 2026-05-06 21:48 | 52.93625 | -19.21868 | 35987 ft | 461 kts | 274° |
| 2026-05-06 21:49 | 52.94507 | -19.32323 | 35972 ft | 461 kts | 274° |
| 2026-05-06 21:49 | 52.95386 | -19.42854 | 35964 ft | 461 kts | 274° |
| 2026-05-06 21:50 | 52.96254 | -19.53385 | 35969 ft | 461 kts | 274° |
| 2026-05-06 21:50 | 52.97116 | -19.63927 | 35974 ft | 461 kts | 274° |
| 2026-05-06 21:51 | 52.97824 | -19.72685 | 35972 ft | 461 kts | 274° |
| 2026-05-06 21:51 | 52.98670 | -19.83224 | 35971 ft | 461 kts | 274° |
| 2026-05-06 21:52 | 52.99509 | -19.93793 | 35976 ft | 461 kts | 274° |
| 2026-05-06 21:52 | 53.00227 | -20.04296 | 35975 ft | 460 kts | 271° |
| 2026-05-06 21:53 | 53.00658 | -20.14902 | 35976 ft | 459 kts | 270° |
| 2026-05-06 21:53 | 53.01044 | -20.25493 | 35979 ft | 460 kts | 270° |
| 2026-05-06 21:54 | 53.01442 | -20.36101 | 35984 ft | 460 kts | 271° |
| 2026-05-06 21:54 | 53.01848 | -20.46662 | 35977 ft | 460 kts | 271° |
| 2026-05-06 21:55 | 53.02251 | -20.57262 | 35981 ft | 459 kts | 270° |
| 2026-05-06 21:55 | 53.02637 | -20.67853 | 35980 ft | 459 kts | 270° |
| 2026-05-06 21:56 | 53.03012 | -20.78364 | 35984 ft | 458 kts | 271° |
| 2026-05-06 21:56 | 53.03382 | -20.88925 | 35983 ft | 458 kts | 270° |
| 2026-05-06 21:57 | 53.03742 | -20.99477 | 35983 ft | 457 kts | 270° |
| 2026-05-06 21:57 | 53.04092 | -21.10023 | 35983 ft | 457 kts | 270° |
| 2026-05-06 21:58 | 53.04433 | -21.20565 | 35986 ft | 457 kts | 270° |
| 2026-05-06 21:58 | 53.04765 | -21.31119 | 35986 ft | 457 kts | 270° |
| 2026-05-06 21:59 | 53.05087 | -21.41663 | 35987 ft | 457 kts | 270° |
| 2026-05-06 21:59 | 53.05400 | -21.52223 | 35995 ft | 457 kts | 270° |
| 2026-05-06 22:00 | 53.05701 | -21.62718 | 35990 ft | 457 kts | 270° |
| 2026-05-06 22:00 | 53.05995 | -21.73268 | 35979 ft | 457 kts | 270° |
| 2026-05-06 22:01 | 53.06282 | -21.83815 | 35991 ft | 457 kts | 270° |
| 2026-05-06 22:01 | 53.06561 | -21.94387 | 35996 ft | 457 kts | 270° |
| 2026-05-06 22:02 | 53.06827 | -22.04936 | 35995 ft | 457 kts | 270° |
| 2026-05-06 22:02 | 53.07083 | -22.15497 | 35985 ft | 457 kts | 270° |
| 2026-05-06 22:03 | 53.07328 | -22.25978 | 35986 ft | 457 kts | 270° |
| 2026-05-06 22:03 | 53.07566 | -22.36542 | 35999 ft | 457 kts | 270° |
| 2026-05-06 22:04 | 53.07795 | -22.47111 | 35995 ft | 457 kts | 270° |
| 2026-05-06 22:04 | 53.08012 | -22.57698 | 36002 ft | 458 kts | 270° |
| 2026-05-06 22:05 | 53.08219 | -22.68305 | 36011 ft | 459 kts | 270° |
| 2026-05-06 22:05 | 53.08420 | -22.78855 | 36000 ft | 459 kts | 270° |
| 2026-05-06 22:06 | 53.08616 | -22.89475 | 35989 ft | 459 kts | 270° |
| 2026-05-06 22:06 | 53.08802 | -23.00102 | 35996 ft | 458 kts | 270° |
| 2026-05-06 22:07 | 53.08971 | -23.10634 | 36005 ft | 458 kts | 269° |
| 2026-05-06 22:07 | 53.09133 | -23.21247 | 36010 ft | 458 kts | 269° |
| 2026-05-06 22:08 | 53.09289 | -23.31850 | 36009 ft | 458 kts | 269° |
| 2026-05-06 22:08 | 53.09436 | -23.42491 | 36005 ft | 459 kts | 269° |
| 2026-05-06 22:09 | 53.09572 | -23.53100 | 36011 ft | 459 kts | 269° |
| 2026-05-06 22:09 | 53.09696 | -23.63648 | 35997 ft | 459 kts | 269° |
| 2026-05-06 22:10 | 53.09811 | -23.74305 | 36005 ft | 460 kts | 269° |
| 2026-05-06 22:10 | 53.09915 | -23.84953 | 36005 ft | 461 kts | 269° |
| 2026-05-06 22:11 | 53.10015 | -23.95612 | 36010 ft | 461 kts | 269° |
| 2026-05-06 22:11 | 53.10078 | -24.02681 | 36014 ft | 461 kts | 269° |